Atlanta, Georgia
Traffic Map
Current Weather Conditions
Atlanta, Georgia
Broken Clouds
Broken Clouds
76°
Feels Like: 76°
Wind Chill: 76° Ceiling: 8000
Heat Index: 76° Visibility: 10mi
Dew Point: 69° Wind: 6mph
Humidity: 79% Direction: 130° (SE)
Pressure: 30.16in Gusts: 0mph
Raw Report DataKATL 221452Z 13005KT 10SM FEW014 SCT060 BKN080 BKN250 24/21 A3016 RMK AO2 SLP203 T02440206 50005
Traffic Incident Summary
Active as of:
Severity:
Category:
InformationThere was an issue retrieving the traffic information for this location. Please try a different location or try again shortly.
Advertisements
Track Severe Weather on mobile